Herat, Afghanistan
Current Conditions -  °F | °C
As of 5:54 PM on Sunday 21 Dec 2014 (Local Time) from OAHR Reporting Station
Scattered Clouds Scattered Clouds  
Wind Chill: 52°   Ceiling: Unl
Heat Index: 52°   Visibility: 4mi
Dew Point: 23°   Wind: 5mph
Humidity: 33%   Direction: 280°W
Pressure: 29.94"   Gusts: NA
Location:  34.35°N, 62.18°E
Report Text: OAHR 211354Z 28004KT 7000 SCT040 SCT110 11/M05 Q1014 RMK BKN VIS MIN 7000 WHT
Loading
Personal Weather Stations






























Interactive Weather Map New forecast layout! Learn more

10-Day Weather Forecast

Advertisements
Track Severe Weather on mobile